Baildon, United Kingdom
Current Conditions -  °F | °C
As of 12:20 AM on Thursday 29 Jan 2015 (Local Time) from EGNM Reporting Station
Snow Showers Snow Showers  
Wind Chill: 22°   Ceiling: Unl
Heat Index: 34°   Visibility: 1.8mi
Dew Point: 30°   Wind: 21mph
Humidity: 87%   Direction: 260°W
Pressure: 29.18"   Gusts: 32mph
Location:  53.85°N, 1.79°W
Report Text: EGNM 290020Z 26018G28KT 3000 -SHSN SCT005 01/M01 Q0988
Loading
Personal Weather Stations






























Interactive Weather Map New forecast layout! Learn more

10-Day Weather Forecast

Advertisements
Track Severe Weather on mobile